createdAt,value
2023-02-22T00:02:34.378Z,6.60
2023-02-22T00:07:35.981Z,6.65
2023-02-22T00:12:37.580Z,5.88
2023-02-22T00:17:39.286Z,6.53
2023-02-22T00:22:48.932Z,7.43
2023-02-22T00:27:52.850Z,6.45
2023-02-22T00:32:56.708Z,6.22
2023-02-22T00:38:00.780Z,6.55
2023-02-22T00:43:04.979Z,6.45
2023-02-22T00:48:08.610Z,6.78
2023-02-22T00:53:11.426Z,6.60
2023-02-22T00:58:13.141Z,5.75
2023-02-22T01:03:17.971Z,7.68
2023-02-22T01:08:20.082Z,6.35
2023-02-22T01:13:21.767Z,6.00
2023-02-22T01:18:23.499Z,7.07
2023-02-22T01:23:25.156Z,7.88
2023-02-22T01:28:26.837Z,6.45
2023-02-22T01:33:28.709Z,6.85
2023-02-22T01:38:30.352Z,6.63
2023-02-22T01:43:33.164Z,6.78
2023-02-22T01:48:51.157Z,5.93
2023-02-22T01:54:03.596Z,6.68
2023-02-22T01:59:10.721Z,6.53
2023-02-22T02:04:20.642Z,6.38
2023-02-22T02:09:40.582Z,6.22
2023-02-22T02:14:43.999Z,6.03
2023-02-22T02:20:13.950Z,5.88
2023-02-22T02:25:41.454Z,6.55
2023-02-22T02:31:06.450Z,6.10
2023-02-22T02:36:22.785Z,6.40
2023-02-22T02:41:29.940Z,11.77
2023-02-22T02:46:48.890Z,8.18
2023-02-22T02:51:54.008Z,6.85
2023-02-22T02:56:57.809Z,7.93
2023-02-22T03:02:13.247Z,7.13
2023-02-22T03:07:28.125Z,8.18
2023-02-22T03:12:54.524Z,8.23
2023-02-22T03:18:31.110Z,7.63
2023-02-22T03:23:37.706Z,7.43
2023-02-22T03:28:43.091Z,7.18
2023-02-22T03:33:51.878Z,7.05
2023-02-22T03:38:55.746Z,7.55
2023-02-22T03:44:09.476Z,8.00
2023-02-22T03:49:25.237Z,7.25
2023-02-22T03:54:28.989Z,7.10
2023-02-22T03:59:31.877Z,8.57
2023-02-22T04:04:34.740Z,7.68
2023-02-22T04:09:37.304Z,7.47
2023-02-22T04:14:39.300Z,8.43
2023-02-22T04:19:42.122Z,8.73
2023-02-22T04:24:44.007Z,8.07
2023-02-22T04:29:45.828Z,7.75
2023-02-22T04:34:48.060Z,7.82
2023-02-22T04:39:49.860Z,9.18
2023-02-22T04:44:52.500Z,9.50
2023-02-22T04:49:54.496Z,8.98
2023-02-22T04:54:56.181Z,13.35
2023-02-22T04:59:58.050Z,10.98
2023-02-22T05:05:00.260Z,10.30
2023-02-22T05:10:02.802Z,8.52
2023-02-22T05:15:07.179Z,9.15
2023-02-22T05:20:21.791Z,9.23
2023-02-22T05:25:24.392Z,11.10
2023-02-22T05:30:30.056Z,11.48
2023-02-22T05:35:32.270Z,10.65
2023-02-22T05:40:34.241Z,10.00
2023-02-22T05:45:36.285Z,12.77
2023-02-22T05:50:37.926Z,12.23
2023-02-22T05:55:40.285Z,12.35
2023-02-22T06:00:42.111Z,11.38
2023-02-22T06:05:43.885Z,10.23
2023-02-22T06:10:45.501Z,10.52
2023-02-22T06:15:47.184Z,10.18
2023-02-22T06:20:48.800Z,9.82
2023-02-22T06:25:50.484Z,10.68
2023-02-22T06:30:52.418Z,12.85
2023-02-22T06:35:54.034Z,12.45
2023-02-22T06:40:55.746Z,12.20
2023-02-22T06:45:57.389Z,12.48
2023-02-22T06:50:59.050Z,12.85
2023-02-22T06:56:00.970Z,12.13
2023-02-22T07:01:03.914Z,12.23
2023-02-22T07:06:07.692Z,12.10
2023-02-22T07:11:09.439Z,13.73
2023-02-22T07:16:11.112Z,14.13
2023-02-22T07:21:12.816Z,13.43
2023-02-22T07:26:14.450Z,12.60
2023-02-22T07:31:16.566Z,12.68
2023-02-22T07:36:18.389Z,12.75
2023-02-22T07:41:20.289Z,11.68
2023-02-22T07:46:21.970Z,10.98
2023-02-22T07:51:23.983Z,11.32
2023-02-22T07:56:25.790Z,12.00
2023-02-22T08:01:28.493Z,11.00
2023-02-22T08:06:30.168Z,12.18
2023-02-22T08:11:31.783Z,12.13
2023-02-22T08:16:33.517Z,11.23
2023-02-22T08:21:35.645Z,10.68
2023-02-22T08:26:37.490Z,10.63
2023-02-22T08:31:39.267Z,12.10
2023-02-22T08:36:42.641Z,11.40
2023-02-22T08:41:44.289Z,9.90
2023-02-22T08:46:45.931Z,11.52
2023-02-22T08:51:47.672Z,10.63
2023-02-22T08:56:49.690Z,10.90
2023-02-22T09:01:51.732Z,11.45
2023-02-22T09:06:53.361Z,10.93
2023-02-22T09:11:54.980Z,10.77
2023-02-22T09:16:56.690Z,11.82
2023-02-22T09:22:00.152Z,12.00
2023-02-22T09:27:04.390Z,14.20
2023-02-22T09:32:06.184Z,14.95
2023-02-22T09:37:08.860Z,14.32
2023-02-22T09:42:31.455Z,13.40
2023-02-22T09:47:41.781Z,12.93
2023-02-22T09:52:54.021Z,13.00
2023-02-22T09:57:59.738Z,11.23
2023-02-22T10:03:16.454Z,10.57
2023-02-22T10:08:19.893Z,10.93
2023-02-22T10:13:39.240Z,10.20
2023-02-22T10:18:56.375Z,8.10
2023-02-22T10:24:04.533Z,8.55
2023-02-22T10:29:06.078Z,9.07
2023-02-22T10:34:21.084Z,7.25
2023-02-22T10:39:35.205Z,5.10
2023-02-22T10:44:38.573Z,4.30
2023-02-22T10:49:44.042Z,3.75
2023-02-22T10:54:48.071Z,3.40
2023-02-22T10:59:52.071Z,5.30
2023-02-22T11:04:56.543Z,5.88
2023-02-22T11:10:00.873Z,5.80
2023-02-22T11:15:18.511Z,5.80
2023-02-22T11:20:25.416Z,6.88
2023-02-22T11:25:39.415Z,6.75
2023-02-22T11:30:44.023Z,6.97
2023-02-22T11:35:58.446Z,7.93
2023-02-22T11:41:26.114Z,7.45
2023-02-22T11:46:34.952Z,7.35
2023-02-22T11:52:10.730Z,9.25
2023-02-22T11:57:18.154Z,7.43
2023-02-22T12:02:30.552Z,7.72
2023-02-22T12:08:20.024Z,7.05
2023-02-22T12:13:38.256Z,6.18
2023-02-22T12:18:53.555Z,5.40
2023-02-22T12:24:14.454Z,5.78
2023-02-22T12:29:30.443Z,6.30
2023-02-22T12:34:41.530Z,6.95
2023-02-22T12:40:08.481Z,6.75
2023-02-22T12:45:31.872Z,7.72
2023-02-22T12:50:35.573Z,7.88
2023-02-22T12:55:50.911Z,7.13
2023-02-22T13:01:14.562Z,6.88
2023-02-22T13:06:27.275Z,5.68
2023-02-22T13:11:36.271Z,5.85
2023-02-22T13:16:42.394Z,5.55
2023-02-22T13:21:55.145Z,6.35
2023-02-22T13:27:02.073Z,5.63
2023-02-22T13:32:12.094Z,6.55
2023-02-22T13:37:47.132Z,5.53
2023-02-22T13:43:03.661Z,5.43
2023-02-22T13:48:24.724Z,5.18
2023-02-22T13:53:54.450Z,5.15
2023-02-22T13:58:59.413Z,5.65
2023-02-22T14:04:19.860Z,5.07
2023-02-22T14:09:45.558Z,4.85
2023-02-22T14:15:18.789Z,5.57
2023-02-22T14:20:36.279Z,5.15
2023-02-22T14:25:42.003Z,4.00
2023-02-22T14:30:43.792Z,5.72
2023-02-22T14:35:50.084Z,5.90
2023-02-22T14:40:53.738Z,4.97
2023-02-22T14:46:00.360Z,4.85
2023-02-22T14:51:20.281Z,4.80
2023-02-22T14:56:36.288Z,5.55
2023-02-22T15:01:53.179Z,5.07
2023-02-22T15:07:08.525Z,5.60
2023-02-22T15:12:18.317Z,5.13
2023-02-22T15:17:24.653Z,4.57
2023-02-22T15:22:35.949Z,4.85
2023-02-22T15:27:38.100Z,5.72
2023-02-22T15:32:53.248Z,5.05
2023-02-22T15:38:20.236Z,4.38
2023-02-22T15:43:24.802Z,4.43
2023-02-22T15:48:27.677Z,4.70
2023-02-22T15:53:37.379Z,5.30
2023-02-22T15:58:39.554Z,4.90
2023-02-22T16:03:57.583Z,4.70
2023-02-22T16:09:06.921Z,5.78
2023-02-22T16:14:31.221Z,6.95
2023-02-22T16:19:42.033Z,7.47
2023-02-22T16:24:44.689Z,9.30
2023-02-22T16:30:23.324Z,10.18
2023-02-22T16:35:28.901Z,12.98
2023-02-22T16:40:35.053Z,13.32
2023-02-22T16:45:36.663Z,13.35
2023-02-22T16:50:38.285Z,16.38
2023-02-22T16:55:44.785Z,12.77
2023-02-22T17:00:46.405Z,15.40
2023-02-22T17:05:48.067Z,11.35
2023-02-22T17:10:51.657Z,11.95
2023-02-22T17:15:55.006Z,11.00
2023-02-22T17:20:56.775Z,11.60
2023-02-22T17:26:02.242Z,10.98
2023-02-22T17:31:04.108Z,11.55
2023-02-22T17:36:06.324Z,11.55
2023-02-22T17:41:08.027Z,11.85
2023-02-22T17:46:09.748Z,16.50
2023-02-22T17:51:12.127Z,12.85
2023-02-22T17:56:18.568Z,13.20
2023-02-22T18:01:25.315Z,13.82
2023-02-22T18:06:29.998Z,14.07
2023-02-22T18:11:32.753Z,15.05
2023-02-22T18:16:34.942Z,14.18
2023-02-22T18:21:36.594Z,14.90
2023-02-22T18:26:39.097Z,15.57
2023-02-22T18:31:40.933Z,16.20
2023-02-22T18:36:42.607Z,16.58
2023-02-22T18:41:48.816Z,16.30
2023-02-22T18:46:50.506Z,17.00
2023-02-22T18:51:52.112Z,16.77
2023-02-22T18:56:53.772Z,17.20
2023-02-22T19:01:55.417Z,16.23
2023-02-22T19:06:57.690Z,18.20
2023-02-22T19:11:59.315Z,19.73
2023-02-22T19:17:02.830Z,17.38
2023-02-22T19:22:04.447Z,18.48
2023-02-22T19:27:06.481Z,17.52
2023-02-22T19:32:12.965Z,16.98
2023-02-22T19:37:15.357Z,18.88
2023-02-22T19:42:16.985Z,19.90
2023-02-22T19:47:18.595Z,17.45
2023-02-22T19:52:20.194Z,19.30
2023-02-22T19:57:23.723Z,16.95
2023-02-22T20:02:27.568Z,17.17
2023-02-22T20:07:29.306Z,19.67
2023-02-22T20:12:31.290Z,19.45
2023-02-22T20:17:32.999Z,20.73
2023-02-22T20:22:34.680Z,20.92
2023-02-22T20:27:36.428Z,23.05
2023-02-22T20:32:38.890Z,20.75
2023-02-22T20:37:42.640Z,19.85
2023-02-22T20:42:44.661Z,19.20
2023-02-22T20:47:46.305Z,19.88
2023-02-22T20:52:48.023Z,18.42
2023-02-22T20:57:49.681Z,17.55
2023-02-22T21:02:51.571Z,18.67
2023-02-22T21:07:53.918Z,19.85
2023-02-22T21:12:56.974Z,17.85
2023-02-22T21:18:00.399Z,19.20
2023-02-22T21:23:03.030Z,20.67
2023-02-22T21:28:05.550Z,19.83
2023-02-22T21:33:07.827Z,19.98
2023-02-22T21:38:14.445Z,19.25
2023-02-22T21:43:16.749Z,19.50
2023-02-22T21:48:18.397Z,21.55
2023-02-22T21:53:20.271Z,19.70
2023-02-22T21:58:22.572Z,23.48
2023-02-22T22:03:24.560Z,21.88
2023-02-22T22:08:28.034Z,24.13
2023-02-22T22:13:29.656Z,21.85
2023-02-22T22:18:31.246Z,22.77
2023-02-22T22:23:33.281Z,22.05
2023-02-22T22:28:34.891Z,23.58
2023-02-22T22:33:37.905Z,22.08
2023-02-22T22:38:39.576Z,23.23
2023-02-22T22:43:45.997Z,21.23
2023-02-22T22:48:47.716Z,22.65
2023-02-22T22:53:50.637Z,22.33
2023-02-22T22:58:55.409Z,23.85
2023-02-22T23:04:01.796Z,24.17
2023-02-22T23:09:24.506Z,24.48
2023-02-22T23:14:31.414Z,24.98
2023-02-22T23:19:35.403Z,24.08
2023-02-22T23:24:37.338Z,27.10
2023-02-22T23:29:41.346Z,25.67
2023-02-22T23:34:42.963Z,25.50
2023-02-22T23:39:44.628Z,25.58
2023-02-22T23:44:47.742Z,23.67
2023-02-22T23:49:50.053Z,24.80
2023-02-22T23:54:53.907Z,25.27
2023-02-22T23:59:55.596Z,26.15
